GZT weather

Gaziantep International Airport
Gaziantep, Gaziantep Province, Turkey

Public forecast

Using degrees Celsius for public forecast. Weather courtesy of forecast.io.

Current aviation weather report (METAR) for Gaziantep International Airport

Retrieved 2020/07/07 19:20 UTC (21 minutes ago):

LTAJ 071920Z 28014KT CAVOK 26/17 Q1005 NOSIG RMK RWY10 29013KT

Aviation forecast (TAF) for Gaziantep International Airport

Retrieved 2020/07/07 18:03 UTC (2 hours ago):

TAF LTAJ 071640Z 0718/0818 28013KT CAVOK BECMG 0720/0722 VRB02KT BECMG 0803/0805 25013KT TEMPO 0811/0815 26015G25KT